createdAt,value
2023-03-20T00:01:31.576Z,100092.27
2023-03-20T00:04:04.010Z,100095.23
2023-03-20T00:06:36.729Z,100097.06
2023-03-20T00:09:09.622Z,100096.87
2023-03-20T00:11:49.248Z,100091.59
2023-03-20T00:14:24.975Z,100090.36
2023-03-20T00:16:57.568Z,100094.88
2023-03-20T00:19:31.105Z,100094.96
2023-03-20T00:22:03.711Z,100093.20
2023-03-20T00:24:36.337Z,100090.51
2023-03-20T00:27:12.274Z,100088.60
2023-03-20T00:29:46.034Z,100089.63
2023-03-20T00:32:18.530Z,100084.74
2023-03-20T00:34:51.050Z,100080.86
2023-03-20T00:37:23.291Z,100082.04
2023-03-20T00:39:55.572Z,100077.73
2023-03-20T00:42:27.919Z,100074.64
2023-03-20T00:45:02.500Z,100076.96
2023-03-20T00:47:41.439Z,100077.34
2023-03-20T00:50:22.078Z,100081.56
2023-03-20T00:52:55.022Z,100077.35
2023-03-20T00:55:30.758Z,100073.08
2023-03-20T00:58:03.968Z,100072.04
2023-03-20T01:00:41.615Z,100076.69
2023-03-20T01:03:19.329Z,100077.26
2023-03-20T01:05:54.072Z,100072.38
2023-03-20T01:08:28.104Z,100066.06
2023-03-20T01:11:01.501Z,100066.35
2023-03-20T01:13:35.117Z,100068.94
2023-03-20T01:16:18.161Z,100068.11
2023-03-20T01:18:50.965Z,100064.89
2023-03-20T01:21:23.749Z,100071.34
2023-03-20T01:23:56.220Z,100065.84
2023-03-20T01:26:33.532Z,100065.55
2023-03-20T01:29:08.624Z,100068.63
2023-03-20T01:31:42.146Z,100066.04
2023-03-20T01:34:16.515Z,100065.41
2023-03-20T01:36:51.960Z,100064.23
2023-03-20T01:39:28.310Z,100059.56
2023-03-20T01:42:01.483Z,100058.77
2023-03-20T01:44:37.644Z,100056.48
2023-03-20T01:47:19.052Z,100055.06
2023-03-20T01:50:28.616Z,100052.43
2023-03-20T01:53:10.779Z,100056.33
2023-03-20T01:55:48.596Z,100056.18
2023-03-20T01:58:25.814Z,100052.85
2023-03-20T02:00:58.522Z,100050.26
2023-03-20T02:03:32.365Z,100051.23
2023-03-20T02:06:25.175Z,100050.19
2023-03-20T02:09:09.704Z,100050.84
2023-03-20T02:11:47.637Z,100051.55
2023-03-20T02:14:21.844Z,100047.95
2023-03-20T02:16:59.244Z,100045.63
2023-03-20T02:19:51.715Z,100041.80
2023-03-20T02:23:16.092Z,100043.86
2023-03-20T02:26:23.485Z,100045.08
2023-03-20T02:29:39.365Z,100037.61
2023-03-20T02:32:34.887Z,100035.19
2023-03-20T02:35:44.341Z,100029.63
2023-03-20T02:38:32.313Z,100027.27
2023-03-20T02:41:12.192Z,100024.75
2023-03-20T02:43:53.415Z,100024.18
2023-03-20T02:46:33.648Z,100023.84
2023-03-20T02:49:20.482Z,100027.39
2023-03-20T02:51:59.712Z,100021.67
2023-03-20T02:54:41.148Z,100022.16
2023-03-20T02:57:20.645Z,100024.35
2023-03-20T02:59:59.746Z,100022.56
2023-03-20T03:02:40.203Z,100018.80
2023-03-20T03:05:17.403Z,100018.84
2023-03-20T03:07:56.215Z,100021.09
2023-03-20T03:10:31.555Z,100014.48
2023-03-20T03:13:06.253Z,100007.83
2023-03-20T03:15:40.944Z,100006.34
2023-03-20T03:18:19.949Z,99999.02
2023-03-20T03:20:57.530Z,100000.44
2023-03-20T03:23:32.961Z,99998.80
2023-03-20T03:26:08.633Z,99997.11
2023-03-20T03:28:44.611Z,99997.75
2023-03-20T03:31:19.734Z,99998.83
2023-03-20T03:33:54.739Z,99999.30
2023-03-20T03:36:39.571Z,99997.79
2023-03-20T03:39:21.510Z,99995.84
2023-03-20T03:42:03.940Z,99993.06
2023-03-20T03:44:45.354Z,99989.48
2023-03-20T03:47:21.979Z,99989.98
2023-03-20T03:49:59.739Z,99991.32
2023-03-20T03:52:33.760Z,99985.17
2023-03-20T03:55:12.361Z,99982.75
2023-03-20T03:58:28.990Z,99984.56
2023-03-20T04:01:02.933Z,99985.98
2023-03-20T04:03:38.037Z,99981.20
2023-03-20T04:06:13.760Z,99978.39
2023-03-20T04:08:45.036Z,99980.46
2023-03-20T04:11:20.197Z,99981.85
2023-03-20T04:13:54.480Z,99979.70
2023-03-20T04:16:27.290Z,99978.12
2023-03-20T04:19:00.650Z,99982.02
2023-03-20T04:21:33.080Z,99979.35
2023-03-20T04:24:05.931Z,99978.80
2023-03-20T04:26:38.241Z,99982.74
2023-03-20T04:29:11.250Z,99978.42
2023-03-20T04:32:03.754Z,99974.59
2023-03-20T04:34:49.462Z,99972.81
2023-03-20T04:37:40.630Z,99976.98
2023-03-20T04:40:15.559Z,99976.79
2023-03-20T04:42:48.716Z,99981.24
2023-03-20T04:45:21.288Z,99984.27
2023-03-20T04:47:54.301Z,99983.42
2023-03-20T04:50:28.149Z,99982.91
2023-03-20T04:53:01.178Z,99982.73
2023-03-20T04:55:34.622Z,99983.51
2023-03-20T04:58:07.172Z,99980.55
2023-03-20T05:00:39.705Z,99982.50
2023-03-20T05:03:12.382Z,99976.85
2023-03-20T05:05:45.750Z,99977.04
2023-03-20T05:08:18.212Z,99975.47
2023-03-20T05:10:50.813Z,99978.40
2023-03-20T05:13:43.220Z,99973.52
2023-03-20T05:16:44.725Z,99971.70
2023-03-20T05:19:26.389Z,99971.77
2023-03-20T05:22:17.434Z,99971.06
2023-03-20T05:24:58.870Z,99973.40
2023-03-20T05:28:02.402Z,99970.11
2023-03-20T05:30:43.917Z,99970.06
2023-03-20T05:33:32.113Z,99967.71
2023-03-20T05:36:39.776Z,99968.38
2023-03-20T05:39:30.645Z,99977.91
2023-03-20T05:42:12.030Z,99979.65
2023-03-20T05:45:15.759Z,99984.77
2023-03-20T05:48:09.300Z,99984.11
2023-03-20T05:50:48.252Z,99985.79
2023-03-20T05:53:39.306Z,99984.92
2023-03-20T05:56:22.141Z,99983.16
2023-03-20T05:59:16.440Z,99983.96
2023-03-20T06:02:21.220Z,99976.69
2023-03-20T06:05:00.767Z,99978.27
2023-03-20T06:07:35.467Z,99976.27
2023-03-20T06:10:14.366Z,99975.26
2023-03-20T06:12:46.998Z,99974.60
2023-03-20T06:15:19.933Z,99974.25
2023-03-20T06:17:57.575Z,99982.80
2023-03-20T06:20:30.008Z,99993.52
2023-03-20T06:23:03.201Z,99994.71
2023-03-20T06:25:35.850Z,99998.38
2023-03-20T06:28:08.646Z,99998.32
2023-03-20T06:30:41.242Z,99998.14
2023-03-20T06:33:14.712Z,99998.41
2023-03-20T06:35:58.471Z,99997.54
2023-03-20T06:38:31.358Z,99995.19
2023-03-20T06:41:04.501Z,99988.77
2023-03-20T06:43:37.532Z,99980.52
2023-03-20T06:46:10.985Z,99981.98
2023-03-20T06:48:43.324Z,99985.48
2023-03-20T06:51:16.602Z,99983.02
2023-03-20T06:53:55.864Z,99984.55
2023-03-20T06:56:32.413Z,99983.71
2023-03-20T06:59:05.525Z,99986.59
2023-03-20T07:01:38.328Z,99989.14
2023-03-20T07:04:12.508Z,99983.30
2023-03-20T07:06:50.545Z,99980.98
2023-03-20T07:09:23.400Z,99984.96
2023-03-20T07:11:55.865Z,99987.45
2023-03-20T07:14:28.757Z,99989.94
2023-03-20T07:17:10.547Z,99991.29
2023-03-20T07:19:42.929Z,99991.55
2023-03-20T07:22:23.715Z,99992.24
2023-03-20T07:24:57.156Z,99993.44
2023-03-20T07:27:29.613Z,99999.03
2023-03-20T07:30:02.017Z,99998.73
2023-03-20T07:32:37.253Z,100003.70
2023-03-20T07:35:11.184Z,100000.99
2023-03-20T07:37:45.847Z,100003.59
2023-03-20T07:40:19.290Z,100003.71
2023-03-20T07:43:04.356Z,100002.06
2023-03-20T07:45:52.909Z,99997.41
2023-03-20T07:48:25.473Z,99988.70
2023-03-20T07:50:57.834Z,99993.02
2023-03-20T07:53:30.427Z,99990.74
2023-03-20T07:56:02.854Z,99994.30
2023-03-20T07:58:37.408Z,99993.80
2023-03-20T08:01:09.837Z,99993.52
2023-03-20T08:03:42.221Z,99992.60
2023-03-20T08:06:14.682Z,99996.41
2023-03-20T08:08:47.037Z,100000.63
2023-03-20T08:11:20.022Z,99997.96
2023-03-20T08:13:52.386Z,99995.78
2023-03-20T08:16:25.464Z,99995.05
2023-03-20T08:19:01.406Z,99989.06
2023-03-20T08:21:34.706Z,99989.46
2023-03-20T08:24:08.703Z,99989.57
2023-03-20T08:26:41.091Z,99992.45
2023-03-20T08:29:13.653Z,99993.29
2023-03-20T08:31:46.247Z,99995.60
2023-03-20T08:34:18.605Z,99993.66
2023-03-20T08:36:52.531Z,99995.45
2023-03-20T08:39:24.903Z,99994.08
2023-03-20T08:41:58.927Z,99995.54
2023-03-20T08:44:32.161Z,99997.38
2023-03-20T08:47:05.650Z,99998.10
2023-03-20T08:49:38.202Z,100001.40
2023-03-20T08:52:10.765Z,100004.52
2023-03-20T08:54:43.285Z,100003.45
2023-03-20T08:57:15.632Z,100009.89
2023-03-20T08:59:47.901Z,100015.12
2023-03-20T09:02:20.336Z,100018.41
2023-03-20T09:04:52.896Z,100021.95
2023-03-20T09:07:25.634Z,100019.75
2023-03-20T09:09:57.909Z,100024.92
2023-03-20T09:12:31.695Z,100026.05
2023-03-20T09:15:05.120Z,100026.58
2023-03-20T09:17:37.410Z,100027.84
2023-03-20T09:20:12.708Z,100030.29
2023-03-20T09:22:45.603Z,100029.70
2023-03-20T09:25:18.120Z,100030.92
2023-03-20T09:27:55.486Z,100030.45
2023-03-20T09:30:27.875Z,100030.84
2023-03-20T09:33:00.220Z,100025.95
2023-03-20T09:35:32.633Z,100026.41
2023-03-20T09:38:04.981Z,100027.29
2023-03-20T09:40:48.482Z,100023.77
2023-03-20T09:43:30.076Z,100025.60
2023-03-20T09:46:09.791Z,100027.31
2023-03-20T09:48:49.023Z,100023.05
2023-03-20T09:51:29.176Z,100023.89
2023-03-20T09:54:08.358Z,100022.47
2023-03-20T09:56:41.218Z,100024.87
2023-03-20T09:59:17.312Z,100023.46
2023-03-20T10:01:53.277Z,100026.20
2023-03-20T10:04:27.972Z,100024.88
2023-03-20T10:07:00.463Z,100025.71
2023-03-20T10:09:33.743Z,100026.20
2023-03-20T10:12:24.161Z,100023.83
2023-03-20T10:15:04.974Z,100024.36
2023-03-20T10:17:46.743Z,100025.75
2023-03-20T10:20:27.211Z,100020.95
2023-03-20T10:23:07.489Z,100019.64
2023-03-20T10:25:44.676Z,100013.46
2023-03-20T10:28:23.167Z,100015.84
2023-03-20T10:31:07.890Z,100018.46
2023-03-20T10:33:51.853Z,100012.70
2023-03-20T10:36:40.118Z,100008.10
2023-03-20T10:39:24.190Z,100008.05
2023-03-20T10:42:00.174Z,100007.05
2023-03-20T10:44:37.897Z,99999.41
2023-03-20T10:47:15.283Z,99995.89
2023-03-20T10:49:51.835Z,99995.70
2023-03-20T10:52:29.362Z,99992.88
2023-03-20T10:55:06.388Z,99990.33
2023-03-20T10:57:45.592Z,99988.49
2023-03-20T11:00:23.535Z,99989.08
2023-03-20T11:02:56.136Z,99986.54
2023-03-20T11:05:32.800Z,99983.86
2023-03-20T11:08:08.921Z,99983.59
2023-03-20T11:10:44.047Z,99982.85
2023-03-20T11:13:27.792Z,99980.06
2023-03-20T11:16:09.852Z,99978.62
2023-03-20T11:18:43.624Z,99975.52
2023-03-20T11:21:22.250Z,99975.82
2023-03-20T11:23:55.923Z,99979.36
2023-03-20T11:26:38.696Z,99979.95
2023-03-20T11:29:23.941Z,99982.02
2023-03-20T11:31:57.051Z,99983.23
2023-03-20T11:34:33.702Z,99978.90
2023-03-20T11:37:22.477Z,99985.93
2023-03-20T11:40:00.477Z,99982.29
2023-03-20T11:42:34.220Z,99985.31
2023-03-20T11:45:17.066Z,99981.64
2023-03-20T11:47:55.092Z,99982.52
2023-03-20T11:50:36.369Z,99983.86
2023-03-20T11:53:26.305Z,99982.42
2023-03-20T11:56:25.766Z,99979.23
2023-03-20T11:59:01.363Z,99983.48
2023-03-20T12:01:44.852Z,99977.27
2023-03-20T12:04:19.378Z,99974.27
2023-03-20T12:06:57.594Z,99976.55
2023-03-20T12:09:37.936Z,99974.97
2023-03-20T12:12:17.636Z,99975.02
2023-03-20T12:14:59.616Z,99974.05
2023-03-20T12:17:40.012Z,99971.16
2023-03-20T12:20:25.739Z,99973.02
2023-03-20T12:23:04.005Z,99972.31
2023-03-20T12:25:41.872Z,99973.36
2023-03-20T12:28:21.030Z,99966.63
2023-03-20T12:31:03.124Z,99964.20
2023-03-20T12:33:48.330Z,99961.63
2023-03-20T12:36:27.159Z,99959.45
2023-03-20T12:38:59.785Z,99954.58
2023-03-20T12:41:40.040Z,99952.13
2023-03-20T12:44:22.449Z,99952.25
2023-03-20T12:47:09.086Z,99951.48
2023-03-20T12:49:52.648Z,99949.21
2023-03-20T12:52:34.002Z,99951.23
2023-03-20T12:55:19.716Z,99949.27
2023-03-20T12:58:07.732Z,99943.81
2023-03-20T13:00:46.040Z,99946.18
2023-03-20T13:03:36.869Z,99946.32
2023-03-20T13:06:15.522Z,99943.98
2023-03-20T13:09:05.369Z,99943.73
2023-03-20T13:11:44.249Z,99938.92
2023-03-20T13:14:25.710Z,99934.19
2023-03-20T13:17:03.746Z,99930.09
2023-03-20T13:19:42.283Z,99926.26
2023-03-20T13:22:21.931Z,99924.86
2023-03-20T13:25:03.568Z,99917.04
2023-03-20T13:27:44.054Z,99917.05
2023-03-20T13:30:22.571Z,99917.72
2023-03-20T13:33:04.231Z,99912.40
2023-03-20T13:35:47.252Z,99909.38
2023-03-20T13:38:24.249Z,99905.80
2023-03-20T13:41:00.480Z,99904.89
2023-03-20T13:43:36.370Z,99904.77
2023-03-20T13:46:12.034Z,99905.15
2023-03-20T13:48:46.279Z,99905.89
2023-03-20T13:51:27.380Z,99904.64
2023-03-20T13:54:12.077Z,99901.46
2023-03-20T13:56:56.701Z,99897.35
2023-03-20T13:59:41.512Z,99895.34
2023-03-20T14:02:28.176Z,99894.42
2023-03-20T14:05:04.158Z,99889.05
2023-03-20T14:07:38.687Z,99887.96
2023-03-20T14:10:39.440Z,99888.55
2023-03-20T14:13:18.446Z,99889.56
2023-03-20T14:15:56.686Z,99891.70
2023-03-20T14:18:29.670Z,99887.23
2023-03-20T14:21:04.592Z,99884.43
2023-03-20T14:23:40.205Z,99881.89
2023-03-20T14:26:20.564Z,99882.64
2023-03-20T14:29:03.636Z,99878.55
2023-03-20T14:31:38.933Z,99876.59
2023-03-20T14:34:18.305Z,99872.75
2023-03-20T14:36:59.863Z,99872.50
2023-03-20T14:39:46.970Z,99865.80
2023-03-20T14:42:36.663Z,99863.98
2023-03-20T14:45:32.763Z,99863.92
2023-03-20T14:48:12.800Z,99861.83
2023-03-20T14:51:03.361Z,99858.18
2023-03-20T14:53:36.254Z,99851.27
2023-03-20T14:56:14.756Z,99848.23
2023-03-20T14:58:56.896Z,99840.48
2023-03-20T15:01:44.319Z,99835.27
2023-03-20T15:04:29.559Z,99832.52
2023-03-20T15:07:04.670Z,99834.92
2023-03-20T15:09:43.187Z,99838.59
2023-03-20T15:12:18.598Z,99841.89
2023-03-20T15:14:56.379Z,99847.80
2023-03-20T15:17:36.417Z,99853.09
2023-03-20T15:20:15.275Z,99855.34
2023-03-20T15:22:58.023Z,99853.21
2023-03-20T15:25:44.027Z,99850.88
2023-03-20T15:28:19.706Z,99855.39
2023-03-20T15:30:54.978Z,99853.22
2023-03-20T15:33:30.369Z,99849.49
2023-03-20T15:36:10.211Z,99849.10
2023-03-20T15:38:42.851Z,99847.69
2023-03-20T15:41:28.161Z,99844.55
2023-03-20T15:44:13.685Z,99838.71
2023-03-20T15:46:53.567Z,99843.64
2023-03-20T15:49:27.710Z,99838.35
2023-03-20T15:52:04.383Z,99839.52
2023-03-20T15:54:38.347Z,99848.83
2023-03-20T15:57:20.733Z,99848.08
2023-03-20T15:59:53.277Z,99847.76
2023-03-20T16:02:27.946Z,99852.66
2023-03-20T16:05:00.332Z,99857.35
2023-03-20T16:07:33.966Z,99858.34
2023-03-20T16:10:20.567Z,99860.67
2023-03-20T16:12:54.679Z,99862.95
2023-03-20T16:15:31.537Z,99859.70
2023-03-20T16:18:06.892Z,99856.71
2023-03-20T16:20:43.388Z,99856.79
2023-03-20T16:23:30.623Z,99864.07
2023-03-20T16:26:04.261Z,99859.38
2023-03-20T16:28:39.307Z,99866.64
2023-03-20T16:31:16.057Z,99866.14
2023-03-20T16:33:48.966Z,99866.45
2023-03-20T16:36:29.275Z,99861.30
2023-03-20T16:39:09.003Z,99860.88
2023-03-20T16:41:42.276Z,99862.39
2023-03-20T16:44:18.413Z,99866.63
2023-03-20T16:47:03.263Z,99868.52
2023-03-20T16:50:19.183Z,99867.36
2023-03-20T16:52:57.089Z,99871.92
2023-03-20T16:55:31.614Z,99875.24
2023-03-20T16:58:07.375Z,99872.12
2023-03-20T17:00:50.989Z,99871.60
2023-03-20T17:03:29.874Z,99876.32
2023-03-20T17:06:06.856Z,99881.08
2023-03-20T17:08:42.603Z,99876.28
2023-03-20T17:11:17.878Z,99879.56
2023-03-20T17:13:50.621Z,99893.04
2023-03-20T17:16:23.777Z,99931.80
2023-03-20T17:19:03.900Z,99929.52
2023-03-20T17:21:36.380Z,99916.58
2023-03-20T17:24:10.882Z,99920.84
2023-03-20T17:26:46.016Z,99923.27
2023-03-20T17:29:18.482Z,99928.73
2023-03-20T17:31:51.291Z,99932.66
2023-03-20T17:34:23.594Z,99936.11
2023-03-20T17:36:57.282Z,99936.58
2023-03-20T17:39:29.811Z,99937.60
2023-03-20T17:42:02.130Z,99937.46
2023-03-20T17:44:34.492Z,99935.70
2023-03-20T17:47:06.748Z,99942.38
2023-03-20T17:49:39.774Z,99940.78
2023-03-20T17:52:16.432Z,99937.27
2023-03-20T17:54:49.769Z,99940.54
2023-03-20T17:57:27.259Z,99940.15
2023-03-20T18:00:00.223Z,99946.45
2023-03-20T18:02:32.546Z,99948.40
2023-03-20T18:05:08.003Z,99947.15
2023-03-20T18:07:40.574Z,99946.32
2023-03-20T18:10:22.063Z,99949.36
2023-03-20T18:12:54.419Z,99948.92
2023-03-20T18:15:26.858Z,99947.68
2023-03-20T18:17:59.178Z,99946.73
2023-03-20T18:20:34.300Z,99943.81
2023-03-20T18:23:07.258Z,99940.83
2023-03-20T18:25:40.425Z,99942.09
2023-03-20T18:28:20.669Z,99946.92
2023-03-20T18:30:53.644Z,99948.20
2023-03-20T18:33:27.806Z,99949.70
2023-03-20T18:36:00.036Z,99948.99
2023-03-20T18:38:32.482Z,99948.71
2023-03-20T18:41:04.731Z,99946.34
2023-03-20T18:43:37.228Z,99944.41
2023-03-20T18:46:12.985Z,99945.89
2023-03-20T18:48:46.248Z,99947.54
2023-03-20T18:51:18.765Z,99946.69
2023-03-20T18:53:51.967Z,99950.88
2023-03-20T18:56:26.291Z,99955.59
2023-03-20T18:58:58.740Z,99958.83
2023-03-20T19:01:31.165Z,99965.35
2023-03-20T19:04:03.624Z,99958.56
2023-03-20T19:06:36.079Z,99957.86
2023-03-20T19:09:10.989Z,99960.16
2023-03-20T19:11:43.344Z,99966.23
2023-03-20T19:14:15.707Z,99966.00
2023-03-20T19:16:49.016Z,99960.46
2023-03-20T19:19:22.364Z,99962.73
2023-03-20T19:21:54.740Z,99964.59
2023-03-20T19:24:27.079Z,99970.04
2023-03-20T19:26:59.424Z,99969.29
2023-03-20T19:29:31.736Z,99971.48
2023-03-20T19:32:04.453Z,99968.99
2023-03-20T19:35:31.002Z,99967.55
2023-03-20T19:37:29.152Z,99970.04
2023-03-20T19:40:01.532Z,99968.77
2023-03-20T19:43:01.428Z,99966.83
2023-03-20T19:45:28.240Z,99965.64
2023-03-20T19:48:01.233Z,99960.95
2023-03-20T19:50:41.238Z,99960.69
2023-03-20T19:53:16.654Z,99961.42
2023-03-20T19:55:49.246Z,99960.81
2023-03-20T19:58:21.645Z,99960.34
2023-03-20T20:00:57.618Z,99958.95
2023-03-20T20:03:31.317Z,99956.56
2023-03-20T20:06:05.024Z,99958.84
2023-03-20T20:08:48.014Z,99957.43
2023-03-20T20:11:22.291Z,99957.61
2023-03-20T20:14:13.401Z,99958.03
2023-03-20T20:16:48.155Z,99956.69
2023-03-20T20:19:20.956Z,99957.49
2023-03-20T20:24:45.638Z,99959.50
2023-03-20T20:27:19.051Z,99954.16
2023-03-20T20:29:53.540Z,99956.92
2023-03-20T20:32:28.941Z,99958.11
2023-03-20T20:40:48.547Z,99963.70
2023-03-20T20:43:43.863Z,99967.02
2023-03-20T20:46:13.241Z,99965.97
2023-03-20T20:48:45.576Z,99968.20
2023-03-20T20:51:18.254Z,99964.27
2023-03-20T20:53:50.637Z,99963.96
2023-03-20T20:56:23.018Z,99962.30
2023-03-20T20:58:55.410Z,99960.59
2023-03-20T21:01:27.784Z,99962.29
2023-03-20T21:04:00.439Z,99962.00
2023-03-20T21:07:03.802Z,99958.92
2023-03-20T21:09:26.010Z,99956.79
2023-03-20T21:11:58.369Z,99957.73
2023-03-20T21:14:30.927Z,99960.10
2023-03-20T21:17:03.609Z,99958.36
2023-03-20T21:19:39.701Z,99962.91
2023-03-20T21:22:15.953Z,99959.45
2023-03-20T21:24:48.840Z,99961.27
2023-03-20T21:27:22.424Z,99956.52
2023-03-20T21:29:54.819Z,99960.20
2023-03-20T21:32:31.725Z,99957.96
2023-03-20T21:35:06.113Z,99958.98
2023-03-20T21:40:31.646Z,99957.59
2023-03-20T21:43:04.817Z,99957.46
2023-03-20T21:49:13.281Z,99952.15
2023-03-20T22:00:52.923Z,99951.27
2023-03-20T22:02:55.407Z,99950.80
2023-03-20T22:06:24.061Z,99948.62
2023-03-20T22:09:35.655Z,99947.63
2023-03-20T22:20:53.433Z,99947.40
2023-03-20T22:34:53.782Z,99948.20
2023-03-20T22:37:46.295Z,99947.02
2023-03-20T22:43:39.576Z,99957.30
2023-03-20T22:46:05.470Z,99960.60
2023-03-20T22:48:43.884Z,99963.92
2023-03-20T22:51:16.461Z,99968.16
2023-03-20T22:53:51.520Z,99965.55
2023-03-20T22:56:24.508Z,99968.62
2023-03-20T22:58:56.952Z,99964.45
2023-03-20T23:01:29.433Z,99966.34
2023-03-20T23:04:01.847Z,99966.08
2023-03-20T23:06:34.208Z,99964.34
2023-03-20T23:09:15.057Z,99969.85
2023-03-20T23:11:48.962Z,99970.20
2023-03-20T23:14:22.568Z,99969.39
2023-03-20T23:16:54.985Z,99969.72
2023-03-20T23:19:28.092Z,99971.46
2023-03-20T23:22:00.984Z,99971.38
2023-03-20T23:24:33.323Z,99970.48
2023-03-20T23:27:05.909Z,99968.44
2023-03-20T23:29:38.318Z,99966.46
2023-03-20T23:32:10.706Z,99967.54
2023-03-20T23:34:43.085Z,99965.70
2023-03-20T23:37:15.413Z,99965.69
2023-03-20T23:39:47.997Z,99964.16
2023-03-20T23:42:30.006Z,99962.48
2023-03-20T23:45:17.116Z,99958.60
2023-03-20T23:47:50.115Z,99958.06
2023-03-20T23:53:20.546Z,99953.14
2023-03-20T23:55:56.324Z,99949.79
2023-03-20T23:58:29.867Z,99942.83
